createdAt,value
2023-03-21T00:00:43.616Z,6.57
2023-03-21T00:03:46.748Z,6.17
2023-03-21T00:06:48.813Z,6.43
2023-03-21T00:09:50.660Z,6.83
2023-03-21T00:12:55.344Z,6.87
2023-03-21T00:16:05.878Z,6.83
2023-03-21T00:19:14.386Z,7.00
2023-03-21T00:22:16.173Z,5.97
2023-03-21T00:25:18.049Z,6.17
2023-03-21T00:28:20.342Z,6.43
2023-03-21T00:31:23.840Z,6.57
2023-03-21T00:34:36.519Z,5.97
2023-03-21T00:37:45.424Z,6.27
2023-03-21T00:40:49.271Z,5.73
2023-03-21T00:43:51.964Z,7.17
2023-03-21T00:47:06.227Z,6.13
2023-03-21T00:50:10.160Z,7.13
2023-03-21T00:53:12.407Z,7.43
2023-03-21T00:56:14.134Z,7.27
2023-03-21T00:59:16.571Z,7.50
2023-03-21T01:02:22.912Z,7.27
2023-03-21T01:05:53.694Z,8.07
2023-03-21T01:08:55.663Z,8.03
2023-03-21T01:11:57.392Z,7.50
2023-03-21T01:14:59.144Z,6.67
2023-03-21T01:18:01.187Z,7.47
2023-03-21T01:21:08.567Z,7.17
2023-03-21T01:24:11.010Z,6.60
2023-03-21T01:27:12.727Z,7.17
2023-03-21T01:30:21.573Z,5.83
2023-03-21T01:33:25.015Z,5.83
2023-03-21T01:36:27.436Z,6.17
2023-03-21T01:39:35.273Z,6.43
2023-03-21T01:42:36.989Z,6.13
2023-03-21T01:46:01.161Z,6.33
2023-03-21T01:49:29.605Z,6.07
2023-03-21T01:52:41.849Z,5.80
2023-03-21T01:55:53.332Z,6.63
2023-03-21T01:59:18.231Z,5.83
2023-03-21T02:02:52.651Z,6.17
2023-03-21T02:06:36.650Z,5.90
2023-03-21T02:09:58.585Z,6.00
2023-03-21T02:13:09.425Z,5.37
2023-03-21T02:16:39.730Z,7.67
2023-03-21T02:19:53.437Z,7.40
2023-03-21T02:23:19.194Z,7.97
2023-03-21T02:26:28.497Z,7.07
2023-03-21T02:30:04.624Z,7.60
2023-03-21T02:33:40.062Z,7.33
2023-03-21T02:37:10.034Z,6.30
2023-03-21T02:40:15.400Z,7.17
2023-03-21T02:43:23.969Z,7.13
2023-03-21T02:47:04.634Z,6.70
2023-03-21T02:50:09.218Z,6.93
2023-03-21T02:53:15.659Z,7.77
2023-03-21T02:56:20.042Z,7.43
2023-03-21T02:59:28.972Z,7.73
2023-03-21T03:02:33.756Z,7.43
2023-03-21T03:05:40.924Z,6.97
2023-03-21T03:09:03.346Z,7.20
2023-03-21T03:12:21.379Z,7.30
2023-03-21T03:15:48.001Z,6.43
2023-03-21T03:19:01.257Z,6.73
2023-03-21T03:22:10.280Z,7.47
2023-03-21T03:25:23.109Z,7.33
2023-03-21T03:28:38.072Z,7.47
2023-03-21T03:31:57.391Z,7.77
2023-03-21T03:35:00.870Z,6.70
2023-03-21T03:38:08.091Z,7.47
2023-03-21T03:41:19.511Z,8.43
2023-03-21T03:44:29.908Z,9.00
2023-03-21T03:48:06.749Z,9.93
2023-03-21T03:51:47.589Z,10.60
2023-03-21T03:55:18.867Z,10.77
2023-03-21T03:58:36.040Z,10.33
2023-03-21T04:01:38.315Z,8.80
2023-03-21T04:04:41.851Z,10.13
2023-03-21T04:07:43.944Z,9.87
2023-03-21T04:10:45.701Z,9.30
2023-03-21T04:13:49.150Z,9.67
2023-03-21T04:16:56.877Z,9.00
2023-03-21T04:20:10.939Z,10.23
2023-03-21T04:23:13.891Z,9.90
2023-03-21T04:26:21.097Z,11.57
2023-03-21T04:29:45.725Z,11.33
2023-03-21T04:33:16.808Z,11.77
2023-03-21T04:36:38.819Z,12.17
2023-03-21T04:39:42.868Z,11.27
2023-03-21T04:42:45.844Z,10.53
2023-03-21T04:45:47.871Z,9.67
2023-03-21T04:48:49.768Z,9.77
2023-03-21T04:51:51.460Z,10.57
2023-03-21T04:54:55.235Z,10.07
2023-03-21T04:57:58.221Z,9.90
2023-03-21T05:01:02.375Z,9.37
2023-03-21T05:04:04.885Z,9.07
2023-03-21T05:07:08.986Z,9.03
2023-03-21T05:10:12.253Z,8.13
2023-03-21T05:13:16.003Z,8.57
2023-03-21T05:16:17.829Z,7.90
2023-03-21T05:19:23.514Z,8.37
2023-03-21T05:22:28.140Z,7.10
2023-03-21T05:25:38.215Z,7.50
2023-03-21T05:28:48.014Z,7.27
2023-03-21T05:31:50.223Z,6.87
2023-03-21T05:34:51.977Z,7.00
2023-03-21T05:37:57.381Z,7.03
2023-03-21T05:41:00.853Z,8.50
2023-03-21T05:44:03.081Z,6.93
2023-03-21T05:47:06.091Z,7.20
2023-03-21T05:50:18.458Z,7.53
2023-03-21T05:53:29.422Z,6.50
2023-03-21T05:56:31.653Z,7.57
2023-03-21T05:59:42.409Z,8.67
2023-03-21T06:02:45.073Z,9.93
2023-03-21T06:06:12.930Z,9.20
2023-03-21T06:09:22.736Z,8.37
2023-03-21T06:12:29.511Z,7.60
2023-03-21T06:15:42.924Z,7.73
2023-03-21T06:18:50.548Z,7.80
2023-03-21T06:22:12.290Z,7.00
2023-03-21T06:25:16.682Z,6.70
2023-03-21T06:28:18.605Z,6.53
2023-03-21T06:31:25.072Z,6.93
2023-03-21T06:34:30.855Z,5.50
2023-03-21T06:37:33.171Z,6.40
2023-03-21T06:40:35.574Z,6.57
2023-03-21T06:43:37.501Z,6.67
2023-03-21T06:46:39.303Z,6.73
2023-03-21T06:49:43.626Z,6.20
2023-03-21T06:52:47.170Z,5.90
2023-03-21T06:55:51.346Z,5.43
2023-03-21T06:58:54.632Z,6.20
2023-03-21T07:02:14.111Z,7.03
2023-03-21T07:05:31.053Z,5.60
2023-03-21T07:08:32.936Z,5.60
2023-03-21T07:11:36.665Z,5.70
2023-03-21T07:14:39.314Z,5.63
2023-03-21T07:17:41.048Z,6.20
2023-03-21T07:20:48.254Z,6.20
2023-03-21T07:23:50.363Z,5.87
2023-03-21T07:26:52.166Z,6.27
2023-03-21T07:29:54.023Z,6.70
2023-03-21T07:32:55.834Z,5.93
2023-03-21T07:35:57.987Z,5.03
2023-03-21T07:38:59.824Z,5.83
2023-03-21T07:42:02.738Z,6.00
2023-03-21T07:45:15.571Z,7.93
2023-03-21T07:48:19.033Z,5.97
2023-03-21T07:51:20.895Z,7.30
2023-03-21T07:54:23.584Z,7.10
2023-03-21T07:57:25.452Z,6.47
2023-03-21T08:00:27.385Z,5.60
2023-03-21T08:03:29.858Z,6.10
2023-03-21T08:06:32.414Z,7.00
2023-03-21T08:09:34.410Z,6.30
2023-03-21T08:12:36.154Z,5.73
2023-03-21T08:15:39.790Z,6.43
2023-03-21T08:18:42.692Z,5.70
2023-03-21T08:21:44.472Z,6.40
2023-03-21T08:24:46.179Z,6.43
2023-03-21T08:27:49.377Z,6.77
2023-03-21T08:30:51.520Z,6.57
2023-03-21T08:33:54.720Z,6.50
2023-03-21T08:36:56.555Z,6.20
2023-03-21T08:39:58.338Z,6.50
2023-03-21T08:43:00.413Z,6.47
2023-03-21T08:46:04.219Z,5.90
2023-03-21T08:49:06.222Z,6.43
2023-03-21T08:52:08.062Z,5.23
2023-03-21T08:55:11.511Z,4.83
2023-03-21T08:58:13.480Z,5.07
2023-03-21T09:01:15.707Z,5.20
2023-03-21T09:04:18.831Z,5.47
2023-03-21T09:07:22.111Z,5.30
2023-03-21T09:10:24.222Z,5.03
2023-03-21T09:13:26.572Z,4.60
2023-03-21T09:16:28.491Z,4.60
2023-03-21T09:19:31.811Z,5.13
2023-03-21T09:22:33.658Z,4.70
2023-03-21T09:25:36.759Z,5.47
2023-03-21T09:28:39.148Z,4.60
2023-03-21T09:31:43.981Z,5.10
2023-03-21T09:34:46.067Z,5.17
2023-03-21T09:37:49.060Z,5.10
2023-03-21T09:40:56.546Z,4.77
2023-03-21T09:44:24.655Z,4.97
2023-03-21T09:47:33.072Z,5.30
2023-03-21T09:50:39.643Z,6.27
2023-03-21T09:53:44.858Z,5.53
2023-03-21T09:56:47.591Z,5.37
2023-03-21T09:59:53.546Z,5.23
2023-03-21T10:03:07.327Z,4.17
2023-03-21T10:06:15.916Z,4.73
2023-03-21T10:09:24.443Z,4.90
2023-03-21T10:12:30.596Z,5.10
2023-03-21T10:15:32.582Z,3.63
2023-03-21T10:18:36.323Z,4.10
2023-03-21T10:21:59.735Z,4.07
2023-03-21T10:25:02.752Z,4.93
2023-03-21T10:28:07.400Z,5.07
2023-03-21T10:31:15.312Z,5.00
2023-03-21T10:34:39.952Z,5.43
2023-03-21T10:37:42.146Z,4.93
2023-03-21T10:40:44.294Z,5.40
2023-03-21T10:43:51.015Z,5.03
2023-03-21T10:46:55.099Z,5.50
2023-03-21T10:50:08.217Z,5.40
2023-03-21T10:53:20.852Z,4.97
2023-03-21T10:56:28.975Z,5.07
2023-03-21T10:59:38.719Z,4.40
2023-03-21T11:02:41.406Z,4.83
2023-03-21T11:05:43.429Z,5.53
2023-03-21T11:08:53.988Z,6.70
2023-03-21T11:12:02.405Z,5.93
2023-03-21T11:15:24.367Z,5.53
2023-03-21T11:18:31.099Z,5.97
2023-03-21T11:21:37.377Z,5.87
2023-03-21T11:24:39.668Z,5.63
2023-03-21T11:27:57.529Z,6.73
2023-03-21T11:31:02.732Z,6.40
2023-03-21T11:34:08.472Z,5.97
2023-03-21T11:37:19.481Z,6.83
2023-03-21T11:40:25.979Z,6.63
2023-03-21T11:43:39.188Z,5.70
2023-03-21T11:46:41.403Z,5.83
2023-03-21T11:49:43.194Z,4.83
2023-03-21T11:53:22.067Z,5.83
2023-03-21T11:56:34.290Z,4.73
2023-03-21T11:59:39.155Z,5.03
2023-03-21T12:02:57.811Z,3.73
2023-03-21T12:06:03.446Z,3.57
2023-03-21T12:09:08.290Z,2.83
2023-03-21T12:12:39.714Z,3.03
2023-03-21T12:16:02.182Z,2.53
2023-03-21T12:19:49.031Z,2.47
2023-03-21T12:22:53.909Z,2.97
2023-03-21T12:26:10.773Z,2.87
2023-03-21T12:29:33.804Z,2.77
2023-03-21T12:32:57.867Z,4.50
2023-03-21T12:36:27.774Z,4.27
2023-03-21T12:39:50.132Z,2.57
2023-03-21T12:43:22.873Z,2.90
2023-03-21T12:46:31.280Z,2.97
2023-03-21T12:49:42.412Z,2.63
2023-03-21T12:53:01.467Z,3.37
2023-03-21T12:56:07.840Z,3.77
2023-03-21T12:59:23.095Z,3.53
2023-03-21T13:02:39.075Z,2.80
2023-03-21T13:05:47.483Z,2.77
2023-03-21T13:09:05.848Z,2.57
2023-03-21T13:12:19.344Z,2.03
2023-03-21T13:15:48.074Z,2.40
2023-03-21T13:18:56.258Z,2.80
2023-03-21T13:22:03.756Z,2.53
2023-03-21T13:25:24.861Z,2.40
2023-03-21T13:28:29.770Z,2.17
2023-03-21T13:31:48.881Z,2.07
2023-03-21T13:34:58.002Z,2.17
2023-03-21T13:38:21.853Z,2.13
2023-03-21T13:41:47.176Z,2.10
2023-03-21T13:44:52.934Z,2.10
2023-03-21T13:47:58.646Z,1.40
2023-03-21T13:51:02.297Z,2.20
2023-03-21T13:54:14.007Z,2.00
2023-03-21T13:57:40.949Z,1.90
2023-03-21T14:00:42.672Z,2.03
2023-03-21T14:03:46.873Z,2.10
2023-03-21T14:07:01.857Z,2.23
2023-03-21T14:10:08.483Z,1.63
2023-03-21T14:13:16.492Z,2.67
2023-03-21T14:16:19.001Z,1.70
2023-03-21T14:19:20.891Z,2.30
2023-03-21T14:22:23.110Z,1.83
2023-03-21T14:25:37.148Z,1.97
2023-03-21T14:28:49.338Z,2.00
2023-03-21T14:31:51.190Z,2.03
2023-03-21T14:34:55.425Z,1.83
2023-03-21T14:38:01.183Z,1.80
2023-03-21T14:41:03.987Z,1.73
2023-03-21T14:44:28.740Z,1.77
2023-03-21T14:47:32.175Z,1.90
2023-03-21T14:50:47.939Z,1.77
2023-03-21T14:53:49.667Z,1.97
2023-03-21T14:56:56.570Z,1.80
2023-03-21T15:00:02.100Z,2.33
2023-03-21T15:03:04.490Z,2.20
2023-03-21T15:06:13.006Z,2.00
2023-03-21T15:09:16.350Z,2.10
2023-03-21T15:12:18.045Z,2.00
2023-03-21T15:15:20.984Z,2.30
2023-03-21T15:18:28.473Z,2.93
2023-03-21T15:21:36.123Z,2.30
2023-03-21T15:24:42.881Z,2.17
2023-03-21T15:27:44.861Z,2.10
2023-03-21T15:30:50.297Z,2.40
2023-03-21T15:33:53.827Z,2.30
2023-03-21T15:37:00.744Z,2.57
2023-03-21T15:40:25.533Z,2.10
2023-03-21T15:43:27.231Z,2.20
2023-03-21T15:46:43.176Z,2.03
2023-03-21T15:49:54.836Z,2.00
2023-03-21T15:53:00.212Z,1.70
2023-03-21T15:56:04.195Z,1.70
2023-03-21T15:59:06.465Z,1.70
2023-03-21T16:02:17.966Z,1.87
2023-03-21T16:05:30.577Z,2.20
2023-03-21T16:08:35.726Z,1.90
2023-03-21T16:11:43.359Z,1.90
2023-03-21T16:14:46.312Z,1.90
2023-03-21T16:18:16.123Z,2.23
2023-03-21T16:21:20.969Z,2.13
2023-03-21T16:24:22.678Z,2.13
2023-03-21T16:27:24.367Z,2.30
2023-03-21T16:30:26.182Z,1.97
2023-03-21T16:33:28.133Z,2.20
2023-03-21T16:36:33.447Z,2.40
2023-03-21T16:39:35.232Z,2.40
2023-03-21T16:42:36.962Z,1.97
2023-03-21T16:45:38.739Z,2.00
2023-03-21T16:48:41.656Z,1.80
2023-03-21T16:51:43.380Z,2.40
2023-03-21T16:54:45.184Z,2.57
2023-03-21T16:57:48.683Z,2.37
2023-03-21T17:00:50.397Z,2.67
2023-03-21T17:03:52.906Z,2.37
2023-03-21T17:06:55.407Z,2.17
2023-03-21T17:09:57.110Z,2.17
2023-03-21T17:12:59.309Z,2.10
2023-03-21T17:16:01.020Z,2.30
2023-03-21T17:19:04.257Z,2.10
2023-03-21T17:22:06.130Z,2.03
2023-03-21T17:25:07.923Z,2.70
2023-03-21T17:28:09.630Z,2.40
2023-03-21T17:31:16.227Z,2.60
2023-03-21T17:34:18.123Z,2.83
2023-03-21T17:37:20.402Z,3.10
2023-03-21T17:40:26.090Z,1.97
2023-03-21T17:43:27.907Z,2.63
2023-03-21T17:46:34.144Z,2.13
2023-03-21T17:49:35.896Z,2.27
2023-03-21T17:52:37.877Z,3.00
2023-03-21T17:55:40.008Z,2.50
2023-03-21T17:58:41.838Z,2.70
2023-03-21T18:01:43.758Z,2.40
2023-03-21T18:04:45.577Z,2.20
2023-03-21T18:08:17.526Z,2.47
2023-03-21T18:11:12.553Z,2.80
2023-03-21T18:14:18.092Z,2.93
2023-03-21T18:17:21.271Z,3.37
2023-03-21T18:20:44.658Z,3.13
2023-03-21T18:23:49.523Z,3.33
2023-03-21T18:26:51.716Z,2.83
2023-03-21T18:30:25.809Z,4.30
2023-03-21T18:33:16.524Z,3.43
2023-03-21T18:36:25.540Z,3.13
2023-03-21T18:39:29.447Z,3.37
2023-03-21T18:42:31.573Z,3.50
2023-03-21T18:45:33.608Z,2.77
2023-03-21T18:48:36.092Z,3.13
2023-03-21T18:51:37.776Z,3.17
2023-03-21T18:54:39.663Z,3.33
2023-03-21T18:57:42.382Z,2.83
2023-03-21T19:00:44.465Z,2.87
2023-03-21T19:04:11.611Z,4.13
2023-03-21T19:07:08.538Z,2.80
2023-03-21T19:10:20.391Z,3.60
2023-03-21T19:13:22.349Z,3.60
2023-03-21T19:16:28.380Z,3.47
2023-03-21T19:19:32.123Z,3.43
2023-03-21T19:22:33.851Z,4.17
2023-03-21T19:25:35.620Z,3.10
2023-03-21T19:28:37.336Z,3.60
2023-03-21T19:31:39.116Z,3.70
2023-03-21T19:34:40.835Z,3.50
2023-03-21T19:37:42.603Z,4.23
2023-03-21T19:40:44.362Z,3.47
2023-03-21T19:43:54.117Z,3.60
2023-03-21T19:46:56.407Z,4.93
2023-03-21T19:53:20.384Z,4.47
2023-03-21T19:56:26.284Z,4.10
2023-03-21T19:59:29.036Z,3.27
2023-03-21T20:02:35.982Z,4.37
2023-03-21T20:05:38.446Z,4.53
2023-03-21T20:12:03.280Z,4.03
2023-03-21T20:15:16.707Z,3.97
2023-03-21T20:18:20.584Z,3.63
2023-03-21T20:21:25.569Z,4.13
2023-03-21T20:24:28.106Z,4.40
2023-03-21T20:27:30.427Z,3.87
2023-03-21T20:30:32.430Z,3.50
2023-03-21T20:33:34.280Z,3.97
2023-03-21T20:36:40.402Z,3.90
2023-03-21T20:39:42.988Z,4.77
2023-03-21T20:42:48.549Z,5.07
2023-03-21T20:45:50.732Z,5.93
2023-03-21T20:48:52.453Z,6.30
2023-03-21T20:55:16.662Z,4.83
2023-03-21T20:58:40.223Z,4.37
2023-03-21T21:01:43.074Z,4.10
2023-03-21T21:05:11.824Z,3.70
2023-03-21T21:08:06.752Z,3.67
2023-03-21T21:12:02.380Z,4.80
2023-03-21T21:14:31.752Z,3.90
2023-03-21T21:18:01.921Z,3.53
2023-03-21T21:20:57.229Z,3.80
2023-03-21T21:23:59.151Z,4.13
2023-03-21T21:27:01.201Z,3.33
2023-03-21T21:30:03.239Z,5.33
2023-03-21T21:33:05.340Z,4.73
2023-03-21T21:36:08.732Z,3.97
2023-03-21T21:39:11.026Z,3.97
2023-03-21T21:42:12.742Z,4.20
2023-03-21T21:45:15.724Z,3.83
2023-03-21T21:48:17.710Z,4.40
2023-03-21T21:51:26.223Z,4.23
2023-03-21T21:54:30.004Z,5.10
2023-03-21T21:57:34.159Z,4.27
2023-03-21T22:00:37.153Z,4.00
2023-03-21T22:03:45.700Z,3.97
2023-03-21T22:06:47.594Z,4.50
2023-03-21T22:09:50.424Z,4.40
2023-03-21T22:12:52.215Z,3.53
2023-03-21T22:15:54.322Z,4.30
2023-03-21T22:18:56.068Z,4.30
2023-03-21T22:21:58.648Z,5.33
2023-03-21T22:25:00.339Z,4.37
2023-03-21T22:28:02.227Z,4.60
2023-03-21T22:31:13.120Z,4.97
2023-03-21T22:34:14.806Z,4.30
2023-03-21T22:37:16.523Z,3.80
2023-03-21T22:40:18.406Z,4.00
2023-03-21T22:43:20.175Z,4.23
2023-03-21T22:46:21.971Z,3.23
2023-03-21T22:49:23.666Z,3.37
2023-03-21T22:52:25.902Z,3.40
2023-03-21T22:55:27.726Z,3.50
2023-03-21T22:58:29.459Z,3.97
2023-03-21T23:01:31.548Z,3.70
2023-03-21T23:04:33.381Z,3.77
2023-03-21T23:07:35.315Z,3.43
2023-03-21T23:10:39.239Z,3.73
2023-03-21T23:13:41.437Z,3.93
2023-03-21T23:16:45.009Z,3.60
2023-03-21T23:19:46.721Z,3.70
2023-03-21T23:22:48.494Z,3.40
2023-03-21T23:25:50.478Z,3.77
2023-03-21T23:28:52.174Z,3.50
2023-03-21T23:31:53.997Z,3.43
2023-03-21T23:34:55.925Z,3.50
2023-03-21T23:37:57.868Z,3.80
2023-03-21T23:41:04.515Z,3.03
2023-03-21T23:44:06.505Z,4.30
2023-03-21T23:47:08.209Z,3.60
2023-03-21T23:50:10.888Z,3.10
2023-03-21T23:53:13.209Z,3.67
2023-03-21T23:56:21.055Z,3.23
2023-03-21T23:59:22.872Z,3.37
